Time;durP1;ratioP1;P1;durP2;ratioP2;P2;SDS_P1;SDS_P2;PMS_P1;PMS_P2;Temp;Humidity;BMP_temperature;BMP_pressure;BME280_temperature;BME280_humidity;BME280_pressure;Samples;Min_cycle;Max_cycle;Signal;HPM_P1;HPM_P2
2022/06/23 00:01:05;;;;;;;11.67;5.87;;;18.40;1.00;;;;;;5052419;28;20510;-75
2022/06/23 00:03:35;;;;;;;11.27;6.00;;;18.30;1.00;;;;;;5054113;28;20954;-75
2022/06/23 00:06:08;;;;;;;11.37;6.67;;;18.30;1.00;;;;;;5060912;28;21045;-76
2022/06/23 00:08:43;;;;;;;10.13;6.03;;;18.30;1.00;;;;;;5059075;28;20457;-76
2022/06/23 00:11:21;;;;;;;11.17;6.80;;;18.30;1.00;;;;;;5050598;28;20943;-78
2022/06/23 00:13:50;;;;;;;10.63;6.50;;;18.30;1.00;;;;;;5074516;28;20469;-75
2022/06/23 00:16:24;;;;;;;11.70;6.37;;;18.30;1.00;;;;;;5053928;28;20460;-76
2022/06/23 00:18:52;;;;;;;8.87;5.67;;;18.20;1.00;;;;;;5054720;28;20476;-75
2022/06/23 00:21:24;;;;;;;11.47;6.10;;;18.20;1.00;;;;;;5064481;28;20597;-75
2022/06/23 00:23:54;;;;;;;9.37;6.43;;;18.20;1.00;;;;;;5058679;28;20463;-77
2022/06/23 00:26:27;;;;;;;10.30;6.03;;;18.20;1.00;;;;;;5053868;28;21306;-76
2022/06/23 00:29:02;;;;;;;10.37;6.07;;;18.20;1.00;;;;;;5058727;28;20479;-76
2022/06/23 00:31:33;;;;;;;8.20;5.10;;;18.20;1.00;;;;;;5043776;28;20459;-75
2022/06/23 00:34:14;;;;;;;11.23;6.40;;;18.20;1.00;;;;;;5067060;28;20470;-76
2022/06/23 00:36:47;;;;;;;11.17;6.30;;;18.10;1.00;;;;;;5066267;28;22035;-76
2022/06/23 00:39:22;;;;;;;10.60;5.80;;;18.10;1.00;;;;;;5049869;28;21079;-76
2022/06/23 00:41:50;;;;;;;9.43;5.97;;;18.10;1.00;;;;;;5053760;28;20446;-77
2022/06/23 00:44:29;;;;;;;10.50;6.50;;;18.10;1.00;;;;;;5048699;28;20468;-76
2022/06/23 00:46:59;;;;;;;11.13;6.53;;;18.00;1.00;;;;;;5051503;28;20574;-76
2022/06/23 00:49:33;;;;;;;12.40;6.27;;;18.00;1.00;;;;;;5045868;28;20488;-76
2022/06/23 00:52:10;;;;;;;11.27;6.30;;;18.00;1.00;;;;;;5064431;28;20540;-76
2022/06/23 00:54:44;;;;;;;9.93;5.83;;;17.90;1.00;;;;;;5057106;28;20512;-77
2022/06/23 00:57:21;;;;;;;9.40;6.00;;;17.90;1.00;;;;;;5050435;28;20456;-76
2022/06/23 00:59:56;;;;;;;10.50;6.90;;;17.90;1.00;;;;;;5047128;28;20572;-76
2022/06/23 01:02:27;;;;;;;11.07;6.00;;;17.80;1.00;;;;;;5049570;28;21034;-77
2022/06/23 01:05:00;;;;;;;9.97;6.10;;;17.80;1.00;;;;;;5058258;28;20459;-77
2022/06/23 01:07:46;;;;;;;10.80;6.50;;;17.80;1.00;;;;;;5052511;28;20461;-75
2022/06/23 01:10:20;;;;;;;12.53;6.03;;;17.70;1.00;;;;;;5052488;28;20473;-77
2022/06/23 01:12:53;;;;;;;9.60;5.50;;;17.70;1.00;;;;;;5050134;28;20483;-77
2022/06/23 01:15:37;;;;;;;10.80;5.47;;;17.70;1.00;;;;;;5055440;28;20486;-77
2022/06/23 01:18:12;;;;;;;11.30;6.10;;;17.70;1.00;;;;;;5054750;28;20474;-76
2022/06/23 01:20:48;;;;;;;11.73;6.20;;;17.70;1.00;;;;;;5053817;28;20470;-76
2022/06/23 01:23:58;;;;;;;14.30;5.40;;;17.70;1.00;;;;;;5064252;28;20476;-76
2022/06/23 01:26:48;;;;;;;10.03;6.03;;;17.70;1.00;;;;;;5029351;28;20487;-75
2022/06/23 01:29:28;;;;;;;8.80;5.33;;;17.70;1.00;;;;;;5047556;28;20476;-76
2022/06/23 01:32:05;;;;;;;9.67;5.93;;;17.70;1.00;;;;;;5049869;28;20570;-76
2022/06/23 01:34:39;;;;;;;9.73;5.77;;;17.70;1.00;;;;;;5059016;28;20971;-75
2022/06/23 01:37:13;;;;;;;10.70;5.80;;;17.70;1.00;;;;;;5047298;28;20462;-76
2022/06/23 01:39:48;;;;;;;8.30;5.30;;;17.60;1.00;;;;;;5054914;28;20582;-76
2022/06/23 01:42:22;;;;;;;9.33;5.40;;;17.60;1.00;;;;;;5043156;28;20830;-77
2022/06/23 01:44:58;;;;;;;8.20;5.40;;;17.50;1.00;;;;;;5046215;28;20464;-77
2022/06/23 01:47:33;;;;;;;7.93;4.90;;;17.50;1.00;;;;;;5038194;28;21058;-77
2022/06/23 01:50:26;;;;;;;8.20;5.20;;;17.40;1.00;;;;;;5040079;28;20468;-78
2022/06/23 01:53:15;;;;;;;10.60;5.23;;;17.40;1.00;;;;;;5047837;28;20468;-77
2022/06/23 01:56:05;;;;;;;10.30;5.30;;;17.40;1.00;;;;;;5050790;28;21692;-77
2022/06/23 01:58:47;;;;;;;9.90;5.17;;;17.40;1.00;;;;;;5061556;28;21021;-77
2022/06/23 02:01:20;;;;;;;11.20;4.87;;;17.30;1.00;;;;;;5044132;28;20463;-76
2022/06/23 02:03:53;;;;;;;9.40;5.33;;;17.30;1.00;;;;;;5058126;28;20575;-77
2022/06/23 02:06:26;;;;;;;10.80;5.10;;;17.30;1.00;;;;;;5044134;28;21199;-75
2022/06/23 02:09:00;;;;;;;9.47;5.50;;;17.30;1.00;;;;;;5052626;28;20471;-75
2022/06/23 02:11:35;;;;;;;12.90;6.07;;;17.30;1.00;;;;;;5046773;28;20456;-75
2022/06/23 02:14:07;;;;;;;8.23;4.80;;;17.30;1.00;;;;;;5040055;28;20931;-75
2022/06/23 02:16:44;;;;;;;10.50;6.30;;;17.30;1.00;;;;;;5063764;28;20531;-76
2022/06/23 02:19:24;;;;;;;9.70;5.87;;;17.20;1.00;;;;;;5041352;28;20477;-75
2022/06/23 02:21:55;;;;;;;9.70;6.03;;;17.20;1.00;;;;;;5059712;28;21274;-76
2022/06/23 02:24:27;;;;;;;9.20;5.27;;;17.20;1.00;;;;;;5054672;28;20471;-76
2022/06/23 02:27:03;;;;;;;9.40;5.70;;;17.10;1.00;;;;;;5052870;28;20452;-77
2022/06/23 02:29:39;;;;;;;9.50;6.03;;;17.10;1.00;;;;;;5049338;28;21040;-77
2022/06/23 02:32:17;;;;;;;12.60;5.60;;;17.10;1.00;;;;;;5039346;28;20467;-77
2022/06/23 02:34:48;;;;;;;11.70;6.33;;;17.10;1.00;;;;;;5036070;28;21076;-74
2022/06/23 02:37:53;;;;;;;10.87;6.30;;;17.10;1.00;;;;;;5047892;28;20457;-75
2022/06/23 02:40:25;;;;;;;10.63;6.20;;;17.00;1.00;;;;;;5047878;28;20851;-76
2022/06/23 02:42:57;;;;;;;11.77;7.03;;;17.00;1.00;;;;;;5050934;28;20452;-75
2022/06/23 02:46:09;;;;;;;11.00;6.97;;;17.00;1.00;;;;;;5054533;28;20621;-74
2022/06/23 02:48:58;;;;;;;12.03;6.87;;;17.00;1.00;;;;;;5062268;28;20424;-76
2022/06/23 02:51:47;;;;;;;12.70;7.47;;;17.00;1.00;;;;;;5048591;28;20463;-77
2022/06/23 02:54:26;;;;;;;10.80;6.60;;;17.00;1.00;;;;;;5050416;28;20524;-79
2022/06/23 02:57:27;;;;;;;11.20;7.10;;;17.00;1.00;;;;;;5052534;28;20475;-77
2022/06/23 02:59:59;;;;;;;11.90;6.70;;;17.00;1.00;;;;;;5049569;28;20457;-77
2022/06/23 03:02:34;;;;;;;12.37;7.03;;;17.00;1.00;;;;;;5050192;28;20998;-76
2022/06/23 03:05:12;;;;;;;10.00;6.00;;;16.90;1.00;;;;;;5045864;28;20547;-76
2022/06/23 03:07:46;;;;;;;10.73;6.03;;;16.90;1.00;;;;;;5057538;28;20595;-77
2022/06/23 03:10:17;;;;;;;11.07;6.17;;;16.90;1.00;;;;;;5047976;28;20464;-76
2022/06/23 03:12:50;;;;;;;15.30;8.00;;;16.90;1.00;;;;;;5051675;28;20467;-76
2022/06/23 03:15:23;;;;;;;8.60;6.00;;;16.90;1.00;;;;;;5049680;28;20559;-75
2022/06/23 03:17:57;;;;;;;13.27;6.43;;;16.90;1.00;;;;;;5046191;28;20490;-76
2022/06/23 03:20:37;;;;;;;12.93;7.60;;;16.90;1.00;;;;;;5048484;28;20456;-76
2022/06/23 03:23:11;;;;;;;10.07;6.20;;;16.90;1.00;;;;;;5048671;28;20885;-77
2022/06/23 03:25:44;;;;;;;11.87;7.00;;;16.90;1.00;;;;;;5056199;28;20460;-76
2022/06/23 03:28:16;;;;;;;11.20;6.70;;;16.90;1.00;;;;;;5048684;28;20945;-76
2022/06/23 03:30:48;;;;;;;11.80;6.93;;;16.90;1.00;;;;;;5052042;28;20456;-76
2022/06/23 03:33:21;;;;;;;11.50;6.63;;;16.90;1.00;;;;;;5055549;28;21370;-78
2022/06/23 03:35:53;;;;;;;10.70;6.70;;;17.00;1.00;;;;;;5047864;28;20481;-78
2022/06/23 03:44:00;;;;;;;12.67;7.80;;;17.00;1.00;;;;;;5049326;28;20459;-77
2022/06/23 03:46:33;;;;;;;10.23;6.80;;;17.00;1.00;;;;;;5057062;28;20913;-76
2022/06/23 03:49:10;;;;;;;10.90;6.70;;;17.10;1.00;;;;;;5048571;28;20478;-78
2022/06/23 03:51:47;;;;;;;12.57;6.70;;;17.00;1.00;;;;;;5057253;28;20598;-75
2022/06/23 03:54:18;;;;;;;13.40;6.37;;;17.10;1.00;;;;;;5033585;28;20641;-76
2022/06/23 03:56:48;;;;;;;12.40;6.53;;;17.10;1.00;;;;;;5059220;28;20544;-75
2022/06/23 03:59:19;;;;;;;13.00;6.60;;;17.10;1.00;;;;;;5037203;28;21051;-76
2022/06/23 04:01:51;;;;;;;10.13;6.13;;;17.20;1.00;;;;;;5047469;28;20464;-76
2022/06/23 04:04:21;;;;;;;11.87;6.83;;;17.20;1.00;;;;;;5042594;28;20472;-75
2022/06/23 04:06:51;;;;;;;12.07;6.13;;;17.20;1.00;;;;;;5057638;28;20537;-76
2022/06/23 04:09:21;;;;;;;11.90;6.70;;;17.20;1.00;;;;;;5049022;28;20998;-76
2022/06/23 04:11:58;;;;;;;8.73;5.80;;;17.30;1.00;;;;;;5046559;28;20461;-77
2022/06/23 04:14:38;;;;;;;10.10;5.77;;;17.40;1.00;;;;;;5048657;28;20455;-77
2022/06/23 04:17:12;;;;;;;11.60;5.67;;;17.30;1.00;;;;;;5044791;28;20889;-78
2022/06/23 04:19:43;;;;;;;13.80;5.70;;;17.40;1.00;;;;;;5055702;28;20464;-77
2022/06/23 04:22:17;;;;;;;9.37;6.10;;;17.40;1.00;;;;;;5047961;28;20526;-77
2022/06/23 04:24:46;;;;;;;12.77;6.43;;;17.50;1.00;;;;;;5059183;28;20989;-77
2022/06/23 04:27:23;;;;;;;9.87;5.70;;;17.60;1.00;;;;;;5056660;28;20544;-76
2022/06/23 04:29:53;;;;;;;9.47;5.67;;;17.60;1.00;;;;;;5050975;28;20817;-77
2022/06/23 04:32:28;;;;;;;9.10;5.23;;;17.70;1.00;;;;;;5058472;28;20909;-75
2022/06/23 04:34:58;;;;;;;12.43;5.80;;;17.70;1.00;;;;;;5063026;28;20459;-77
2022/06/23 04:37:34;;;;;;;11.27;5.47;;;17.80;1.00;;;;;;5062436;28;20469;-76
2022/06/23 04:40:22;;;;;;;9.90;5.40;;;17.80;1.00;;;;;;5066811;28;20993;-76
2022/06/23 04:42:57;;;;;;;14.70;6.57;;;17.90;1.00;;;;;;5049458;28;20459;-75
2022/06/23 04:45:48;;;;;;;11.43;5.70;;;18.00;1.00;;;;;;5051726;28;20455;-74
2022/06/23 04:48:22;;;;;;;11.83;5.53;;;18.10;1.00;;;;;;5050784;28;20558;-75
2022/06/23 04:50:56;;;;;;;10.57;5.10;;;18.20;1.00;;;;;;5055726;28;20555;-76
2022/06/23 04:53:48;;;;;;;10.73;5.67;;;18.20;1.00;;;;;;5057355;28;20492;-76
2022/06/23 04:56:41;;;;;;;13.27;5.63;;;18.30;1.00;;;;;;5056611;28;20572;-75
2022/06/23 04:59:27;;;;;;;10.07;5.00;;;18.30;1.00;;;;;;5047588;28;20468;-76
2022/06/23 05:01:57;;;;;;;8.80;4.60;;;18.40;1.00;;;;;;5052929;28;20487;-74
2022/06/23 05:04:28;;;;;;;11.17;5.80;;;18.50;1.00;;;;;;5042027;28;20966;-78
2022/06/23 05:06:58;;;;;;;12.47;5.77;;;18.60;1.00;;;;;;5050392;28;20966;-75
2022/06/23 05:09:32;;;;;;;10.57;6.23;;;18.70;1.00;;;;;;5049684;28;20427;-76
2022/06/23 05:12:04;;;;;;;11.20;5.43;;;18.80;1.00;;;;;;5050308;28;21023;-75
2022/06/23 05:14:44;;;;;;;13.57;5.67;;;18.90;1.00;;;;;;5057420;28;20521;-77
2022/06/23 05:17:16;;;;;;;12.30;4.53;;;19.00;1.00;;;;;;5055813;28;20555;-76
2022/06/23 05:19:44;;;;;;;9.47;4.53;;;19.00;1.00;;;;;;5052800;28;20507;-76
2022/06/23 05:22:33;;;;;;;14.53;7.70;;;19.20;1.00;;;;;;5054756;28;20465;-77
2022/06/23 05:25:33;;;;;;;11.87;5.40;;;19.30;1.00;;;;;;5049838;28;20464;-76
2022/06/23 05:28:06;;;;;;;8.43;4.50;;;19.40;1.00;;;;;;5054472;28;20453;-78
2022/06/23 05:30:37;;;;;;;11.97;7.30;;;19.60;1.00;;;;;;5063082;28;20543;-76
2022/06/23 05:33:12;;;;;;;10.90;5.37;;;19.60;1.00;;;;;;5056188;28;20470;-81
2022/06/23 05:35:49;;;;;;;11.53;5.60;;;19.70;1.00;;;;;;5071299;28;20487;-81
2022/06/23 05:38:41;;;;;;;9.50;5.00;;;19.80;1.00;;;;;;5073591;28;20433;-81
2022/06/23 05:41:18;;;;;;;12.23;5.47;;;20.00;1.00;;;;;;5068805;28;20460;-81
2022/06/23 05:43:47;;;;;;;10.63;5.93;;;20.10;1.00;;;;;;5064255;28;20489;-82
2022/06/23 05:46:20;;;;;;;12.97;5.70;;;20.20;1.00;;;;;;5059631;28;20560;-80
2022/06/23 05:48:56;;;;;;;8.50;4.40;;;20.30;1.00;;;;;;5061499;28;20979;-81
2022/06/23 05:51:36;;;;;;;9.93;4.77;;;20.40;1.00;;;;;;5059217;28;20460;-80
2022/06/23 05:54:11;;;;;;;10.47;4.73;;;20.40;1.00;;;;;;5068081;28;20471;-79
2022/06/23 05:56:47;;;;;;;8.97;4.33;;;20.60;1.00;;;;;;5068683;28;20458;-81
2022/06/23 05:59:19;;;;;;;7.67;4.10;;;20.70;1.00;;;;;;5065569;28;20436;-79
2022/06/23 06:01:54;;;;;;;7.80;4.20;;;20.70;1.00;;;;;;5056301;28;21278;-79
2022/06/23 06:04:26;;;;;;;8.93;4.20;;;20.80;1.00;;;;;;5069215;28;20917;-81
2022/06/23 06:06:57;;;;;;;8.40;4.07;;;20.80;1.00;;;;;;5065669;28;20903;-80
2022/06/23 06:09:42;;;;;;;11.30;4.27;;;20.90;1.00;;;;;;5053033;28;20523;-81
2022/06/23 06:12:16;;;;;;;9.47;4.07;;;21.00;1.00;;;;;;5055842;28;20459;-79
2022/06/23 06:14:53;;;;;;;7.80;4.30;;;21.10;1.00;;;;;;5058025;28;20545;-81
2022/06/23 06:17:30;;;;;;;8.47;4.00;;;21.10;1.00;;;;;;5061192;28;20521;-79
2022/06/23 06:20:05;;;;;;;10.73;3.80;;;21.20;1.00;;;;;;5056341;28;20475;-80
2022/06/23 06:22:45;;;;;;;10.50;5.30;;;21.30;1.00;;;;;;5055017;28;20421;-81
2022/06/23 06:25:22;;;;;;;10.07;4.57;;;21.40;1.00;;;;;;5053843;28;20480;-81
2022/06/23 06:27:51;;;;;;;8.63;4.90;;;21.50;1.00;;;;;;5056643;28;20516;-79
2022/06/23 06:30:26;;;;;;;9.47;4.33;;;21.50;1.00;;;;;;5069951;28;20461;-80
2022/06/23 06:32:55;;;;;;;24.20;6.67;;;21.50;1.00;;;;;;5050352;28;20460;-81
2022/06/23 06:35:29;;;;;;;7.60;4.70;;;21.60;1.00;;;;;;5064701;28;20470;-80
2022/06/23 06:38:02;;;;;;;9.57;4.70;;;21.70;1.00;;;;;;5064966;28;20467;-80
2022/06/23 06:40:31;;;;;;;8.87;4.70;;;21.80;1.00;;;;;;5066799;28;20468;-80
2022/06/23 06:43:04;;;;;;;10.10;4.67;;;21.90;1.00;;;;;;5068497;28;20528;-81
2022/06/23 06:45:34;;;;;;;8.30;4.40;;;22.00;1.00;;;;;;5058219;28;20566;-74
2022/06/23 06:48:03;;;;;;;11.17;5.20;;;22.00;1.00;;;;;;5066549;28;20857;-77
2022/06/23 06:50:36;;;;;;;7.93;4.47;;;22.00;1.00;;;;;;5060098;28;20445;-78
2022/06/23 06:53:15;;;;;;;8.67;6.00;;;22.00;1.00;;;;;;5063092;28;21252;-76
2022/06/23 06:55:45;;;;;;;10.30;4.43;;;22.00;1.00;;;;;;5065352;28;20935;-76
2022/06/23 06:58:33;;;;;;;11.37;4.83;;;22.00;1.00;;;;;;5059625;28;20482;-77
2022/06/23 07:01:05;;;;;;;10.20;4.70;;;22.10;1.00;;;;;;5064489;28;20836;-79
2022/06/23 07:03:35;;;;;;;8.40;4.63;;;22.10;1.00;;;;;;5052684;28;20869;-77
2022/06/23 07:06:10;;;;;;;10.03;4.63;;;22.20;1.00;;;;;;5052317;28;20485;-77
2022/06/23 07:08:41;;;;;;;7.80;4.20;;;22.20;1.00;;;;;;5064229;28;20448;-77
2022/06/23 07:11:18;;;;;;;8.50;4.03;;;22.30;1.00;;;;;;5047847;28;20459;-78
2022/06/23 07:13:51;;;;;;;14.97;5.30;;;22.40;1.00;;;;;;5050490;28;20491;-77
2022/06/23 07:16:24;;;;;;;11.07;4.60;;;22.50;1.00;;;;;;5054497;28;20475;-77
2022/06/23 07:19:02;;;;;;;8.30;5.13;;;22.70;1.00;;;;;;5058098;28;20455;-77
2022/06/23 07:21:37;;;;;;;12.90;6.50;;;22.90;1.00;;;;;;5049515;28;20471;-78
2022/06/23 07:24:12;;;;;;;10.30;5.43;;;23.10;1.00;;;;;;5053257;28;20464;-77
2022/06/23 07:26:44;;;;;;;12.13;5.43;;;23.30;1.00;;;;;;5056236;28;20477;-77
2022/06/23 07:29:25;;;;;;;10.07;5.07;;;23.20;1.00;;;;;;5063211;28;20982;-77
2022/06/23 07:32:01;;;;;;;10.03;4.20;;;23.30;1.00;;;;;;5060733;28;20462;-77
2022/06/23 07:34:31;;;;;;;8.10;4.20;;;23.40;1.00;;;;;;5047419;28;20484;-76
2022/06/23 07:37:00;;;;;;;9.40;5.40;;;23.50;1.00;;;;;;5055352;28;20468;-75
2022/06/23 07:39:30;;;;;;;11.90;5.40;;;23.70;1.00;;;;;;5061908;28;20446;-76
2022/06/23 07:42:02;;;;;;;8.30;5.13;;;23.80;1.00;;;;;;5052212;28;20903;-76
2022/06/23 07:44:37;;;;;;;8.03;4.33;;;23.80;1.00;;;;;;5054921;28;20567;-77
2022/06/23 07:47:05;;;;;;;7.30;4.10;;;23.90;1.00;;;;;;5047270;28;20484;-78
2022/06/23 07:49:33;;;;;;;8.90;4.27;;;24.10;1.00;;;;;;5040324;28;21057;-76
2022/06/23 07:52:01;;;;;;;10.00;5.33;;;24.10;1.00;;;;;;5052764;28;20567;-77
2022/06/23 07:54:31;;;;;;;10.90;5.97;;;24.20;1.00;;;;;;5042392;28;20444;-75
2022/06/23 07:56:59;;;;;;;8.90;4.20;;;24.30;1.00;;;;;;5042736;28;20963;-77
2022/06/23 07:59:34;;;;;;;6.87;4.10;;;24.50;1.00;;;;;;5059791;28;20494;-78
2022/06/23 08:02:08;;;;;;;9.77;4.90;;;24.60;1.00;;;;;;5045505;28;20479;-78
2022/06/23 08:04:41;;;;;;;7.77;4.93;;;24.80;1.00;;;;;;5049493;28;20493;-77
2022/06/23 08:07:12;;;;;;;13.77;4.87;;;24.90;1.00;;;;;;5048498;28;20504;-77
2022/06/23 08:09:46;;;;;;;9.10;5.17;;;25.00;1.00;;;;;;5079307;28;20434;-77
2022/06/23 08:18:01;;;;;;;7.80;4.10;;;25.50;1.00;;;;;;5062036;28;20966;-77
2022/06/23 08:20:34;;;;;;;8.50;4.43;;;25.50;1.00;;;;;;5050336;28;20444;-77
2022/06/23 08:23:06;;;;;;;8.90;4.63;;;25.70;1.00;;;;;;5058756;28;20492;-77
2022/06/23 08:25:34;;;;;;;11.00;4.93;;;25.80;1.00;;;;;;5055465;28;20596;-77
2022/06/23 08:28:02;;;;;;;9.47;4.60;;;25.80;1.00;;;;;;5045218;28;20987;-77
2022/06/23 08:30:36;;;;;;;11.33;5.60;;;25.80;1.00;;;;;;5053300;28;20495;-76
2022/06/23 08:33:05;;;;;;;8.03;3.67;;;25.90;1.00;;;;;;5053669;28;20469;-78
2022/06/23 08:35:38;;;;;;;9.50;4.40;;;26.00;1.00;;;;;;5052625;28;20790;-77
2022/06/23 08:38:09;;;;;;;7.40;4.10;;;26.10;1.00;;;;;;5050576;28;21084;-77
2022/06/23 08:40:49;;;;;;;9.47;3.90;;;26.30;1.00;;;;;;5050727;28;20978;-77
2022/06/23 08:43:26;;;;;;;8.17;3.83;;;26.30;1.00;;;;;;5054224;28;20486;-76
2022/06/23 08:46:04;;;;;;;7.93;4.77;;;26.40;1.00;;;;;;5058897;28;20872;-78
2022/06/23 08:48:38;;;;;;;10.10;4.50;;;26.40;1.00;;;;;;5054457;28;20470;-77
2022/06/23 08:51:20;;;;;;;8.70;3.70;;;26.40;1.00;;;;;;5046311;28;20583;-76
2022/06/23 08:53:59;;;;;;;14.27;7.40;;;26.50;1.00;;;;;;5060321;28;20571;-76
2022/06/23 08:56:34;;;;;;;8.27;4.57;;;26.50;1.00;;;;;;5054199;28;20547;-78
2022/06/23 08:59:11;;;;;;;9.57;4.67;;;26.60;1.00;;;;;;5045171;28;21294;-76
2022/06/23 09:01:46;;;;;;;9.23;3.70;;;26.80;1.00;;;;;;5051529;28;20443;-76
2022/06/23 09:04:22;;;;;;;11.83;4.80;;;26.90;1.00;;;;;;5051835;28;20473;-77
2022/06/23 09:06:55;;;;;;;7.20;3.93;;;27.30;1.00;;;;;;5066983;28;20966;-78
2022/06/23 09:09:33;;;;;;;6.23;3.23;;;27.60;1.00;;;;;;5056402;28;20941;-75
2022/06/23 09:12:13;;;;;;;9.40;3.40;;;27.70;1.00;;;;;;5049788;28;20498;-77
2022/06/23 09:15:19;;;;;;;11.60;5.93;;;27.90;1.00;;;;;;5052211;28;20486;-78
2022/06/23 09:18:22;;;;;;;9.80;4.57;;;28.00;1.00;;;;;;5049032;28;20472;-77
2022/06/23 09:21:17;;;;;;;8.50;4.20;;;28.20;1.00;;;;;;5058811;28;20558;-78
2022/06/23 09:24:17;;;;;;;10.07;6.87;;;28.30;1.00;;;;;;5062508;28;20487;-78
2022/06/23 09:26:54;;;;;;;7.20;4.00;;;28.40;1.00;;;;;;5052847;28;20465;-79
2022/06/23 09:29:30;;;;;;;8.53;4.00;;;28.60;1.00;;;;;;5045646;28;20457;-78
2022/06/23 09:31:59;;;;;;;6.17;3.57;;;28.70;1.00;;;;;;5049987;28;20468;-77
2022/06/23 09:34:55;;;;;;;7.77;3.93;;;28.80;1.00;;;;;;5052426;28;20468;-77
2022/06/23 09:37:39;;;;;;;6.07;3.57;;;28.80;1.00;;;;;;5053611;28;20621;-77
2022/06/23 09:40:32;;;;;;;7.20;3.50;;;29.00;1.00;;;;;;5054644;28;20468;-77
2022/06/23 09:43:35;;;;;;;6.57;3.30;;;29.60;1.00;;;;;;5065385;28;20477;-77
2022/06/23 09:46:37;;;;;;;6.27;3.47;;;31.10;1.00;;;;;;5055893;28;20494;-77
2022/06/23 09:49:18;;;;;;;5.87;3.40;;;33.10;1.00;;;;;;5060678;28;20922;-77
2022/06/23 09:52:17;;;;;;;5.90;3.17;;;34.10;1.00;;;;;;5046457;28;20459;-78
2022/06/23 09:55:19;;;;;;;9.13;3.63;;;35.00;1.00;;;;;;5043927;28;20564;-77
2022/06/23 09:58:33;;;;;;;6.77;3.23;;;36.20;1.00;;;;;;5055936;28;20456;-76
2022/06/23 10:01:13;;;;;;;6.10;3.13;;;37.20;1.00;;;;;;5046977;28;20489;-77
2022/06/23 10:03:55;;;;;;;6.70;3.20;;;37.50;1.00;;;;;;5054126;28;20640;-78
2022/06/23 10:06:43;;;;;;;6.87;3.93;;;37.80;1.00;;;;;;5052262;28;20560;-78
2022/06/23 10:09:25;;;;;;;5.53;3.03;;;38.20;1.00;;;;;;5046340;28;20430;-77
2022/06/23 10:12:13;;;;;;;7.23;3.00;;;38.70;1.00;;;;;;5054628;28;20981;-78
2022/06/23 10:14:59;;;;;;;6.00;2.50;;;38.70;1.00;;;;;;5051545;28;20806;-79
2022/06/23 10:17:52;;;;;;;5.07;2.50;;;39.40;1.00;;;;;;5046446;28;20598;-77
2022/06/23 10:20:40;;;;;;;5.77;2.73;;;39.60;1.00;;;;;;5051549;28;20523;-78
2022/06/23 10:23:31;;;;;;;9.90;3.73;;;39.80;1.00;;;;;;5044596;28;20464;-77
2022/06/23 10:26:17;;;;;;;8.03;7.23;;;39.80;1.00;;;;;;5061853;28;20494;-78
2022/06/23 10:29:09;;;;;;;8.50;3.17;;;39.80;1.00;;;;;;5055501;28;20474;-77
2022/06/23 10:32:02;;;;;;;9.10;3.00;;;39.90;1.00;;;;;;5054518;28;20497;-79
2022/06/23 10:34:44;;;;;;;6.23;2.80;;;40.00;1.00;;;;;;5059285;28;20933;-77
2022/06/23 10:37:33;;;;;;;5.40;2.47;;;40.10;1.00;;;;;;5050705;28;20947;-78
2022/06/23 10:40:27;;;;;;;5.63;2.50;;;38.60;1.00;;;;;;5056557;28;20491;-77
2022/06/23 10:43:09;;;;;;;8.30;5.00;;;39.20;1.00;;;;;;5045481;28;20456;-77
2022/06/23 10:45:48;;;;;;;6.77;2.57;;;39.00;1.00;;;;;;5048392;28;20591;-77
2022/06/23 10:48:45;;;;;;;9.17;7.13;;;39.90;1.00;;;;;;5054619;28;20487;-78
2022/06/23 10:51:31;;;;;;;7.90;2.60;;;40.10;1.00;;;;;;5052890;28;20469;-78
2022/06/23 10:54:12;;;;;;;9.33;3.20;;;40.70;1.00;;;;;;5046470;28;20445;-78
2022/06/23 10:57:08;;;;;;;6.00;2.53;;;41.10;1.00;;;;;;5057144;28;20449;-78
2022/06/23 10:59:56;;;;;;;7.83;3.10;;;40.60;1.00;;;;;;5056966;28;20447;-77
2022/06/23 11:03:00;;;;;;;5.70;2.47;;;40.20;1.00;;;;;;5046526;28;20468;-78
2022/06/23 11:05:41;;;;;;;8.37;2.83;;;40.60;1.00;;;;;;5064784;28;20469;-78
2022/06/23 11:08:26;;;;;;;7.07;2.70;;;40.50;1.00;;;;;;5064127;28;20461;-77
2022/06/23 11:11:22;;;;;;;5.90;2.50;;;41.10;1.00;;;;;;5065482;28;20459;-78
2022/06/23 11:13:58;;;;;;;5.60;2.50;;;42.10;1.00;;;;;;5048741;28;20472;-77
2022/06/23 11:16:39;;;;;;;5.90;3.10;;;43.00;1.00;;;;;;5049106;28;20494;-78
2022/06/23 11:19:31;;;;;;;8.30;2.87;;;43.90;1.00;;;;;;5052363;28;20539;-77
2022/06/23 11:22:15;;;;;;;8.90;4.30;;;44.10;1.00;;;;;;5060866;28;20452;-78
2022/06/23 11:24:54;;;;;;;6.97;3.30;;;44.40;1.00;;;;;;5047301;28;20987;-77
2022/06/23 11:27:33;;;;;;;6.20;2.20;;;44.90;1.00;;;;;;5062913;28;20459;-79
2022/06/23 11:30:10;;;;;;;7.10;2.53;;;44.70;1.00;;;;;;5050099;28;20499;-78
2022/06/23 11:33:04;;;;;;;8.63;3.80;;;44.60;1.00;;;;;;5059938;28;20968;-77
2022/06/23 11:35:47;;;;;;;5.67;2.80;;;44.90;1.00;;;;;;5046643;28;20456;-78
2022/06/23 11:38:32;;;;;;;5.40;2.20;;;45.30;1.00;;;;;;5056051;28;20441;-77
2022/06/23 11:41:23;;;;;;;6.00;2.53;;;45.40;1.00;;;;;;5066887;28;20465;-78
2022/06/23 11:44:05;;;;;;;8.67;3.57;;;45.60;1.00;;;;;;5060195;28;20964;-77
2022/06/23 11:46:35;;;;;;;6.27;2.80;;;46.10;1.00;;;;;;5066119;28;20543;-79
2022/06/23 11:49:27;;;;;;;8.07;2.40;;;46.20;1.00;;;;;;5065940;28;20471;-77
2022/06/23 11:52:06;;;;;;;6.40;2.60;;;46.50;1.00;;;;;;5059967;28;20472;-79
2022/06/23 11:54:45;;;;;;;5.90;2.33;;;46.20;1.00;;;;;;5052973;28;20452;-80
2022/06/23 11:57:30;;;;;;;6.50;2.60;;;45.70;1.00;;;;;;5057777;28;21015;-79
2022/06/23 12:00:05;;;;;;;7.23;3.70;;;45.60;1.00;;;;;;5059241;28;20873;-78
2022/06/23 12:02:45;;;;;;;6.10;3.27;;;45.70;1.00;;;;;;5058437;28;20462;-77
2022/06/23 12:05:22;;;;;;;8.90;3.70;;;45.70;1.00;;;;;;5056180;28;20460;-79
2022/06/23 12:08:36;;;;;;;6.07;2.23;;;45.70;1.00;;;;;;5043797;28;20533;-78
2022/06/23 12:11:07;;;;;;;8.30;2.40;;;45.60;1.00;;;;;;5040089;28;20538;-79
2022/06/23 12:13:40;;;;;;;5.20;2.67;;;45.50;1.00;;;;;;5059867;28;20483;-77
2022/06/23 12:16:07;;;;;;;5.97;2.50;;;45.60;1.00;;;;;;5047630;28;20475;-78
2022/06/23 12:18:49;;;;;;;5.63;2.27;;;46.00;1.00;;;;;;5060264;28;20471;-78
2022/06/23 12:21:36;;;;;;;6.40;2.20;;;46.50;1.00;;;;;;5046644;28;20542;-78
2022/06/23 12:24:21;;;;;;;5.80;2.20;;;46.40;1.00;;;;;;5057850;28;20464;-78
2022/06/23 12:26:52;;;;;;;5.80;2.13;;;45.60;1.00;;;;;;5068580;28;20976;-80
2022/06/23 12:29:26;;;;;;;9.67;4.00;;;45.90;1.00;;;;;;5046765;28;20468;-78
2022/06/23 12:32:02;;;;;;;5.57;2.10;;;46.20;1.00;;;;;;5058293;28;21007;-78
2022/06/23 12:34:36;;;;;;;5.23;2.30;;;45.40;1.00;;;;;;5065558;28;20498;-78
2022/06/23 12:37:28;;;;;;;7.70;3.67;;;45.10;1.00;;;;;;5044517;28;20467;-79
2022/06/23 12:40:02;;;;;;;5.87;2.70;;;45.90;1.00;;;;;;5066860;28;20479;-78
2022/06/23 12:42:34;;;;;;;7.43;2.30;;;46.00;1.00;;;;;;5056146;28;20455;-78
2022/06/23 12:45:31;;;;;;;7.03;2.70;;;46.00;1.00;;;;;;5047912;28;20500;-78
2022/06/23 12:48:17;;;;;;;7.00;2.50;;;46.20;1.00;;;;;;5062235;28;20416;-78
2022/06/23 12:50:55;;;;;;;5.40;2.40;;;46.60;1.00;;;;;;5071093;28;20464;-78
2022/06/23 12:53:43;;;;;;;5.53;2.20;;;46.90;1.00;;;;;;5053581;28;20463;-77
2022/06/23 12:56:29;;;;;;;5.80;2.13;;;46.40;1.00;;;;;;5040844;28;20923;-77
2022/06/23 12:59:03;;;;;;;6.07;2.57;;;45.60;1.00;;;;;;5057732;28;20460;-78
2022/06/23 13:01:37;;;;;;;6.00;2.00;;;44.90;1.00;;;;;;5067456;28;21333;-79
2022/06/23 13:04:12;;;;;;;5.50;1.90;;;45.20;1.00;;;;;;5064822;28;20477;-78
2022/06/23 13:06:52;;;;;;;6.70;2.83;;;45.10;1.00;;;;;;5049220;28;20464;-77
2022/06/23 13:09:30;;;;;;;5.20;2.17;;;45.50;1.00;;;;;;5060602;28;20464;-77
2022/06/23 13:12:06;;;;;;;6.03;1.93;;;45.80;1.00;;;;;;5044483;28;20832;-78
2022/06/23 13:14:40;;;;;;;5.10;1.70;;;46.00;1.00;;;;;;5036398;28;20534;-79
2022/06/23 13:17:21;;;;;;;7.30;2.30;;;45.80;1.00;;;;;;5058146;28;20497;-79
2022/06/23 13:19:54;;;;;;;5.87;2.10;;;46.20;1.00;;;;;;5053807;28;20575;-79
2022/06/23 13:22:21;;;;;;;6.83;2.20;;;46.50;1.00;;;;;;5051164;28;20467;-78
2022/06/23 13:24:55;;;;;;;6.13;2.10;;;46.10;1.00;;;;;;5040976;28;20460;-77
2022/06/23 13:27:26;;;;;;;5.73;1.70;;;45.60;1.00;;;;;;5045345;28;20465;-78
2022/06/23 13:29:59;;;;;;;5.83;2.37;;;45.00;1.00;;;;;;5054222;28;20539;-79
2022/06/23 13:32:32;;;;;;;6.20;2.57;;;45.00;1.00;;;;;;5047450;28;20508;-79
2022/06/23 13:35:05;;;;;;;6.87;2.53;;;45.10;1.00;;;;;;5046454;28;20610;-78
2022/06/23 13:37:42;;;;;;;5.60;1.90;;;45.30;1.00;;;;;;5051108;28;20582;-79
2022/06/23 13:40:26;;;;;;;7.00;2.60;;;45.30;1.00;;;;;;5042749;28;20949;-79
2022/06/23 13:43:03;;;;;;;5.37;1.80;;;45.60;1.00;;;;;;5055434;28;20483;-79
2022/06/23 13:45:38;;;;;;;6.37;1.70;;;45.70;1.00;;;;;;5052190;28;20468;-78
2022/06/23 13:48:16;;;;;;;6.30;2.83;;;46.00;1.00;;;;;;5046323;28;21327;-79
2022/06/23 13:50:48;;;;;;;5.40;2.00;;;46.10;1.00;;;;;;5050666;28;20540;-79
2022/06/23 13:53:21;;;;;;;7.30;2.23;;;45.90;1.00;;;;;;5048977;28;20468;-77
2022/06/23 13:56:00;;;;;;;6.93;1.90;;;45.70;1.00;;;;;;5044854;28;20903;-79
2022/06/23 13:58:32;;;;;;;6.77;2.00;;;45.70;1.00;;;;;;5049611;28;20637;-78
2022/06/23 14:01:07;;;;;;;6.23;2.00;;;45.80;1.00;;;;;;5066410;28;20486;-78